sensor_id;sensor_type;location;lat;lon;timestamp;temperature;humidity
37518;DHT22;23366;52.498;13.446;2022-12-18T00:00:17;-3.70;99.90
37518;DHT22;23366;52.498;13.446;2022-12-18T00:02:46;-3.70;99.90
37518;DHT22;23366;52.498;13.446;2022-12-18T00:05:11;-3.80;99.90
37518;DHT22;23366;52.498;13.446;2022-12-18T00:07:37;-3.80;99.90
37518;DHT22;23366;52.498;13.446;2022-12-18T00:10:03;-3.70;99.90
37518;DHT22;23366;52.498;13.446;2022-12-18T00:15:17;-3.70;99.90
37518;DHT22;23366;52.498;13.446;2022-12-18T00:17:42;-3.70;99.90
37518;DHT22;23366;52.498;13.446;2022-12-18T00:20:08;-3.60;99.90
37518;DHT22;23366;52.498;13.446;2022-12-18T00:22:34;-3.60;99.90
37518;DHT22;23366;52.498;13.446;2022-12-18T00:25:00;-3.60;99.90
37518;DHT22;23366;52.498;13.446;2022-12-18T00:27:25;-3.60;99.90
37518;DHT22;23366;52.498;13.446;2022-12-18T00:29:51;-3.50;99.90
37518;DHT22;23366;52.498;13.446;2022-12-18T00:32:19;-3.60;99.90
37518;DHT22;23366;52.498;13.446;2022-12-18T00:34:45;-3.70;99.90
37518;DHT22;23366;52.498;13.446;2022-12-18T00:37:11;-3.60;99.90
37518;DHT22;23366;52.498;13.446;2022-12-18T00:39:36;-3.70;99.90
37518;DHT22;23366;52.498;13.446;2022-12-18T00:42:02;-3.70;99.90
37518;DHT22;23366;52.498;13.446;2022-12-18T00:44:46;-3.70;99.90
37518;DHT22;23366;52.498;13.446;2022-12-18T00:47:11;-3.80;99.90
37518;DHT22;23366;52.498;13.446;2022-12-18T00:49:37;-3.80;99.90
37518;DHT22;23366;52.498;13.446;2022-12-18T00:52:06;-3.90;99.90
37518;DHT22;23366;52.498;13.446;2022-12-18T00:54:31;-3.90;99.90
37518;DHT22;23366;52.498;13.446;2022-12-18T00:57:01;-4.00;99.90
37518;DHT22;23366;52.498;13.446;2022-12-18T00:59:29;-4.00;99.90
37518;DHT22;23366;52.498;13.446;2022-12-18T01:01:55;-4.10;99.90
37518;DHT22;23366;52.498;13.446;2022-12-18T01:04:21;-4.10;99.90
37518;DHT22;23366;52.498;13.446;2022-12-18T01:06:46;-4.10;99.90
37518;DHT22;23366;52.498;13.446;2022-12-18T01:09:15;-4.10;99.90
37518;DHT22;23366;52.498;13.446;2022-12-18T01:11:43;-4.00;99.90
37518;DHT22;23366;52.498;13.446;2022-12-18T01:14:09;-4.00;99.90
37518;DHT22;23366;52.498;13.446;2022-12-18T01:16:35;-4.10;99.90
37518;DHT22;23366;52.498;13.446;2022-12-18T01:19:00;-4.10;99.90
37518;DHT22;23366;52.498;13.446;2022-12-18T01:21:26;-4.10;99.90
37518;DHT22;23366;52.498;13.446;2022-12-18T01:23:56;-4.30;99.90
37518;DHT22;23366;52.498;13.446;2022-12-18T01:26:25;-4.20;99.90
37518;DHT22;23366;52.498;13.446;2022-12-18T01:28:54;-4.20;99.90
37518;DHT22;23366;52.498;13.446;2022-12-18T01:31:25;-4.20;99.90
37518;DHT22;23366;52.498;13.446;2022-12-18T01:33:52;-4.10;99.90
37518;DHT22;23366;52.498;13.446;2022-12-18T01:36:21;-4.20;99.90
37518;DHT22;23366;52.498;13.446;2022-12-18T01:38:47;-4.20;99.90
37518;DHT22;23366;52.498;13.446;2022-12-18T01:41:15;-4.20;99.90
37518;DHT22;23366;52.498;13.446;2022-12-18T01:44:01;-4.20;99.90
37518;DHT22;23366;52.498;13.446;2022-12-18T01:46:30;-4.10;99.90
37518;DHT22;23366;52.498;13.446;2022-12-18T01:48:58;-4.10;99.90
37518;DHT22;23366;52.498;13.446;2022-12-18T01:51:25;-4.20;99.90
37518;DHT22;23366;52.498;13.446;2022-12-18T01:53:54;-4.20;99.90
37518;DHT22;23366;52.498;13.446;2022-12-18T01:56:23;-4.30;99.90
37518;DHT22;23366;52.498;13.446;2022-12-18T01:59:01;-4.30;99.90
37518;DHT22;23366;52.498;13.446;2022-12-18T02:01:32;-4.20;99.90
37518;DHT22;23366;52.498;13.446;2022-12-18T02:06:46;-4.30;99.90
37518;DHT22;23366;52.498;13.446;2022-12-18T02:09:39;-4.30;99.90
37518;DHT22;23366;52.498;13.446;2022-12-18T02:12:18;-4.30;99.90
37518;DHT22;23366;52.498;13.446;2022-12-18T02:20:22;-4.40;99.90
37518;DHT22;23366;52.498;13.446;2022-12-18T02:23:01;-4.40;99.90
37518;DHT22;23366;52.498;13.446;2022-12-18T02:28:17;-4.20;99.90
37518;DHT22;23366;52.498;13.446;2022-12-18T02:30:48;-4.30;99.90
37518;DHT22;23366;52.498;13.446;2022-12-18T02:33:19;-4.20;99.90
37518;DHT22;23366;52.498;13.446;2022-12-18T02:35:53;-4.10;99.90
37518;DHT22;23366;52.498;13.446;2022-12-18T02:38:20;-4.20;99.90
37518;DHT22;23366;52.498;13.446;2022-12-18T02:40:46;-4.30;99.90
37518;DHT22;23366;52.498;13.446;2022-12-18T02:43:15;-4.20;99.90
37518;DHT22;23366;52.498;13.446;2022-12-18T02:45:54;-4.10;99.90
37518;DHT22;23366;52.498;13.446;2022-12-18T02:48:24;-4.30;99.90
37518;DHT22;23366;52.498;13.446;2022-12-18T02:53:45;-4.40;99.90
37518;DHT22;23366;52.498;13.446;2022-12-18T02:56:20;-4.30;99.90
37518;DHT22;23366;52.498;13.446;2022-12-18T02:59:04;-4.20;99.90
37518;DHT22;23366;52.498;13.446;2022-12-18T03:04:33;-4.30;99.90
37518;DHT22;23366;52.498;13.446;2022-12-18T03:07:09;-4.30;99.90
37518;DHT22;23366;52.498;13.446;2022-12-18T03:09:43;-4.30;99.90
37518;DHT22;23366;52.498;13.446;2022-12-18T03:12:24;-4.40;99.90
37518;DHT22;23366;52.498;13.446;2022-12-18T03:14:58;-4.40;99.90
37518;DHT22;23366;52.498;13.446;2022-12-18T03:17:27;-4.40;99.90
37518;DHT22;23366;52.498;13.446;2022-12-18T03:19:54;-4.40;99.90
37518;DHT22;23366;52.498;13.446;2022-12-18T03:22:23;-4.40;99.90
37518;DHT22;23366;52.498;13.446;2022-12-18T03:24:51;-4.50;99.90
37518;DHT22;23366;52.498;13.446;2022-12-18T03:27:20;-4.40;99.90
37518;DHT22;23366;52.498;13.446;2022-12-18T03:30:04;-4.40;99.90
37518;DHT22;23366;52.498;13.446;2022-12-18T03:33:01;-4.40;99.90
37518;DHT22;23366;52.498;13.446;2022-12-18T03:35:32;-4.40;99.90
37518;DHT22;23366;52.498;13.446;2022-12-18T03:38:00;-4.50;99.90
37518;DHT22;23366;52.498;13.446;2022-12-18T03:43:19;-4.60;99.90
37518;DHT22;23366;52.498;13.446;2022-12-18T03:45:52;-4.50;99.90
37518;DHT22;23366;52.498;13.446;2022-12-18T03:48:37;-4.60;99.90
37518;DHT22;23366;52.498;13.446;2022-12-18T03:51:17;-4.70;99.90
37518;DHT22;23366;52.498;13.446;2022-12-18T03:53:47;-4.60;99.90
37518;DHT22;23366;52.498;13.446;2022-12-18T03:56:15;-4.60;99.90
37518;DHT22;23366;52.498;13.446;2022-12-18T03:58:43;-4.50;99.90
37518;DHT22;23366;52.498;13.446;2022-12-18T04:01:13;-4.60;99.90
37518;DHT22;23366;52.498;13.446;2022-12-18T04:03:41;-4.60;99.90
37518;DHT22;23366;52.498;13.446;2022-12-18T04:06:07;-4.60;99.90
37518;DHT22;23366;52.498;13.446;2022-12-18T04:08:34;-4.60;99.90
37518;DHT22;23366;52.498;13.446;2022-12-18T04:11:01;-4.70;99.90
37518;DHT22;23366;52.498;13.446;2022-12-18T04:13:37;-4.60;99.90
37518;DHT22;23366;52.498;13.446;2022-12-18T04:16:03;-4.70;99.90
37518;DHT22;23366;52.498;13.446;2022-12-18T04:18:29;-4.70;99.90
37518;DHT22;23366;52.498;13.446;2022-12-18T04:20:55;-4.50;99.90
37518;DHT22;23366;52.498;13.446;2022-12-18T04:23:21;-4.50;99.90
37518;DHT22;23366;52.498;13.446;2022-12-18T04:25:47;-4.60;99.90
37518;DHT22;23366;52.498;13.446;2022-12-18T04:28:13;-4.60;99.90
37518;DHT22;23366;52.498;13.446;2022-12-18T04:30:39;-4.60;99.90
37518;DHT22;23366;52.498;13.446;2022-12-18T04:33:12;-4.60;99.90
37518;DHT22;23366;52.498;13.446;2022-12-18T04:35:39;-4.70;99.90
37518;DHT22;23366;52.498;13.446;2022-12-18T04:38:06;-4.80;99.90
37518;DHT22;23366;52.498;13.446;2022-12-18T04:40:37;-4.90;99.90
37518;DHT22;23366;52.498;13.446;2022-12-18T04:43:03;-4.80;99.90
37518;DHT22;23366;52.498;13.446;2022-12-18T04:45:32;-4.80;99.90
37518;DHT22;23366;52.498;13.446;2022-12-18T04:48:00;-4.80;99.90
37518;DHT22;23366;52.498;13.446;2022-12-18T04:50:25;-4.80;99.90
37518;DHT22;23366;52.498;13.446;2022-12-18T04:52:51;-4.90;99.90
37518;DHT22;23366;52.498;13.446;2022-12-18T04:55:17;-4.80;99.90
37518;DHT22;23366;52.498;13.446;2022-12-18T04:57:42;-4.90;99.90
37518;DHT22;23366;52.498;13.446;2022-12-18T05:00:08;-4.90;99.90
37518;DHT22;23366;52.498;13.446;2022-12-18T05:02:34;-4.80;99.90
37518;DHT22;23366;52.498;13.446;2022-12-18T05:04:59;-4.80;99.90
37518;DHT22;23366;52.498;13.446;2022-12-18T05:07:25;-4.80;99.90
37518;DHT22;23366;52.498;13.446;2022-12-18T05:09:51;-4.80;99.90
37518;DHT22;23366;52.498;13.446;2022-12-18T05:12:16;-4.80;99.90
37518;DHT22;23366;52.498;13.446;2022-12-18T05:14:42;-4.80;99.90
37518;DHT22;23366;52.498;13.446;2022-12-18T05:17:07;-4.80;99.90
37518;DHT22;23366;52.498;13.446;2022-12-18T05:19:33;-4.80;99.90
37518;DHT22;23366;52.498;13.446;2022-12-18T05:21:58;-4.80;99.90
37518;DHT22;23366;52.498;13.446;2022-12-18T05:24:24;-4.80;99.90
37518;DHT22;23366;52.498;13.446;2022-12-18T05:26:50;-4.80;99.90
37518;DHT22;23366;52.498;13.446;2022-12-18T05:29:15;-4.70;99.90
37518;DHT22;23366;52.498;13.446;2022-12-18T05:31:41;-4.70;99.90
37518;DHT22;23366;52.498;13.446;2022-12-18T05:34:06;-4.70;99.90
37518;DHT22;23366;52.498;13.446;2022-12-18T05:36:32;-4.70;99.90
37518;DHT22;23366;52.498;13.446;2022-12-18T05:38:58;-4.70;99.90
37518;DHT22;23366;52.498;13.446;2022-12-18T05:41:25;-4.60;99.90
37518;DHT22;23366;52.498;13.446;2022-12-18T05:43:51;-4.60;99.90
37518;DHT22;23366;52.498;13.446;2022-12-18T05:46:17;-4.60;99.90
37518;DHT22;23366;52.498;13.446;2022-12-18T05:48:44;-4.70;99.90
37518;DHT22;23366;52.498;13.446;2022-12-18T05:51:14;-4.70;99.90
37518;DHT22;23366;52.498;13.446;2022-12-18T05:53:41;-4.70;99.90
37518;DHT22;23366;52.498;13.446;2022-12-18T05:56:16;-4.70;99.90
37518;DHT22;23366;52.498;13.446;2022-12-18T05:58:42;-4.70;99.90
37518;DHT22;23366;52.498;13.446;2022-12-18T06:01:13;-4.70;99.90
37518;DHT22;23366;52.498;13.446;2022-12-18T06:03:40;-4.60;99.90
37518;DHT22;23366;52.498;13.446;2022-12-18T06:07:02;-4.60;99.90
37518;DHT22;23366;52.498;13.446;2022-12-18T06:10:06;-4.60;99.90
37518;DHT22;23366;52.498;13.446;2022-12-18T06:12:32;-4.60;99.90
37518;DHT22;23366;52.498;13.446;2022-12-18T06:15:01;-4.60;99.90
37518;DHT22;23366;52.498;13.446;2022-12-18T06:17:32;-4.60;99.90
37518;DHT22;23366;52.498;13.446;2022-12-18T06:20:03;-4.60;99.90
37518;DHT22;23366;52.498;13.446;2022-12-18T06:22:34;-4.60;99.90
37518;DHT22;23366;52.498;13.446;2022-12-18T06:25:00;-4.60;99.90
37518;DHT22;23366;52.498;13.446;2022-12-18T06:27:27;-4.60;99.90
37518;DHT22;23366;52.498;13.446;2022-12-18T06:29:52;-4.50;99.90
37518;DHT22;23366;52.498;13.446;2022-12-18T06:32:18;-4.60;99.90
37518;DHT22;23366;52.498;13.446;2022-12-18T06:34:43;-4.50;99.90
37518;DHT22;23366;52.498;13.446;2022-12-18T06:37:09;-4.50;99.90
37518;DHT22;23366;52.498;13.446;2022-12-18T06:39:34;-4.60;99.90
37518;DHT22;23366;52.498;13.446;2022-12-18T06:42:00;-4.60;99.90
37518;DHT22;23366;52.498;13.446;2022-12-18T06:44:26;-4.60;99.90
37518;DHT22;23366;52.498;13.446;2022-12-18T06:46:51;-4.70;99.90
37518;DHT22;23366;52.498;13.446;2022-12-18T06:49:17;-4.60;99.90
37518;DHT22;23366;52.498;13.446;2022-12-18T06:51:42;-4.60;99.90
37518;DHT22;23366;52.498;13.446;2022-12-18T06:54:08;-4.60;99.90
37518;DHT22;23366;52.498;13.446;2022-12-18T06:56:34;-4.60;99.90
37518;DHT22;23366;52.498;13.446;2022-12-18T06:58:59;-4.60;99.90
37518;DHT22;23366;52.498;13.446;2022-12-18T07:01:25;-4.60;99.90
37518;DHT22;23366;52.498;13.446;2022-12-18T07:03:55;-4.60;99.90
37518;DHT22;23366;52.498;13.446;2022-12-18T07:06:23;-4.60;99.90
37518;DHT22;23366;52.498;13.446;2022-12-18T07:08:49;-4.70;99.90
37518;DHT22;23366;52.498;13.446;2022-12-18T07:11:16;-4.70;99.90
37518;DHT22;23366;52.498;13.446;2022-12-18T07:13:42;-4.70;99.90
37518;DHT22;23366;52.498;13.446;2022-12-18T07:16:18;-4.70;99.90
37518;DHT22;23366;52.498;13.446;2022-12-18T07:18:45;-4.70;99.90
37518;DHT22;23366;52.498;13.446;2022-12-18T07:21:13;-4.70;99.90
37518;DHT22;23366;52.498;13.446;2022-12-18T07:23:42;-4.60;99.90
37518;DHT22;23366;52.498;13.446;2022-12-18T07:26:11;-4.60;99.90
37518;DHT22;23366;52.498;13.446;2022-12-18T07:28:38;-4.60;99.90
37518;DHT22;23366;52.498;13.446;2022-12-18T07:31:20;-4.50;99.90
37518;DHT22;23366;52.498;13.446;2022-12-18T07:33:47;-4.60;99.90
37518;DHT22;23366;52.498;13.446;2022-12-18T07:36:13;-4.40;99.90
37518;DHT22;23366;52.498;13.446;2022-12-18T07:38:42;-4.40;99.90
37518;DHT22;23366;52.498;13.446;2022-12-18T07:41:12;-4.40;99.90
37518;DHT22;23366;52.498;13.446;2022-12-18T07:43:39;-4.30;99.90
37518;DHT22;23366;52.498;13.446;2022-12-18T07:46:05;-4.50;99.90
37518;DHT22;23366;52.498;13.446;2022-12-18T07:48:31;-4.50;99.90
37518;DHT22;23366;52.498;13.446;2022-12-18T07:51:00;-4.60;99.90
37518;DHT22;23366;52.498;13.446;2022-12-18T07:53:26;-4.70;99.90
37518;DHT22;23366;52.498;13.446;2022-12-18T07:55:56;-4.70;99.90
37518;DHT22;23366;52.498;13.446;2022-12-18T07:58:22;-4.70;99.90
37518;DHT22;23366;52.498;13.446;2022-12-18T08:00:48;-4.70;99.90
37518;DHT22;23366;52.498;13.446;2022-12-18T08:03:13;-4.60;99.90
37518;DHT22;23366;52.498;13.446;2022-12-18T08:05:41;-4.60;99.90
37518;DHT22;23366;52.498;13.446;2022-12-18T08:08:07;-4.50;99.90
37518;DHT22;23366;52.498;13.446;2022-12-18T08:10:32;-4.50;99.90
37518;DHT22;23366;52.498;13.446;2022-12-18T08:12:58;-4.50;99.90
37518;DHT22;23366;52.498;13.446;2022-12-18T08:15:23;-4.40;99.90
37518;DHT22;23366;52.498;13.446;2022-12-18T08:17:49;-4.60;99.90
37518;DHT22;23366;52.498;13.446;2022-12-18T08:20:14;-4.50;99.90
37518;DHT22;23366;52.498;13.446;2022-12-18T08:22:41;-4.50;99.90
37518;DHT22;23366;52.498;13.446;2022-12-18T08:25:07;-4.40;99.90
37518;DHT22;23366;52.498;13.446;2022-12-18T08:27:33;-4.40;99.90
37518;DHT22;23366;52.498;13.446;2022-12-18T08:29:58;-4.30;99.90
37518;DHT22;23366;52.498;13.446;2022-12-18T08:32:26;-4.30;99.90
37518;DHT22;23366;52.498;13.446;2022-12-18T08:34:56;-4.30;99.90
37518;DHT22;23366;52.498;13.446;2022-12-18T08:37:30;-4.20;99.90
37518;DHT22;23366;52.498;13.446;2022-12-18T08:39:58;-4.10;99.90
37518;DHT22;23366;52.498;13.446;2022-12-18T08:42:26;-4.20;99.90
37518;DHT22;23366;52.498;13.446;2022-12-18T08:45:10;-4.20;99.90
37518;DHT22;23366;52.498;13.446;2022-12-18T08:47:36;-4.20;99.90
37518;DHT22;23366;52.498;13.446;2022-12-18T08:50:02;-4.20;99.90
37518;DHT22;23366;52.498;13.446;2022-12-18T08:52:27;-4.30;99.90
37518;DHT22;23366;52.498;13.446;2022-12-18T08:54:53;-4.20;99.90
37518;DHT22;23366;52.498;13.446;2022-12-18T08:57:19;-4.20;99.90
37518;DHT22;23366;52.498;13.446;2022-12-18T08:59:44;-4.20;99.90
37518;DHT22;23366;52.498;13.446;2022-12-18T09:02:11;-4.10;99.90
37518;DHT22;23366;52.498;13.446;2022-12-18T09:04:36;-4.20;99.90
37518;DHT22;23366;52.498;13.446;2022-12-18T09:07:02;-4.10;99.90
37518;DHT22;23366;52.498;13.446;2022-12-18T09:09:27;-4.20;99.90
37518;DHT22;23366;52.498;13.446;2022-12-18T09:11:53;-4.10;99.90
37518;DHT22;23366;52.498;13.446;2022-12-18T09:14:18;-4.00;99.90
37518;DHT22;23366;52.498;13.446;2022-12-18T09:16:44;-4.00;99.90
37518;DHT22;23366;52.498;13.446;2022-12-18T09:19:09;-4.00;99.90
37518;DHT22;23366;52.498;13.446;2022-12-18T09:21:38;-3.90;99.90
37518;DHT22;23366;52.498;13.446;2022-12-18T09:24:04;-3.90;99.90
37518;DHT22;23366;52.498;13.446;2022-12-18T09:26:30;-3.90;99.90
37518;DHT22;23366;52.498;13.446;2022-12-18T09:28:56;-3.80;99.90
37518;DHT22;23366;52.498;13.446;2022-12-18T09:31:23;-3.70;99.90
37518;DHT22;23366;52.498;13.446;2022-12-18T09:33:49;-3.60;99.90
37518;DHT22;23366;52.498;13.446;2022-12-18T09:36:16;-3.50;99.90
37518;DHT22;23366;52.498;13.446;2022-12-18T09:38:43;-3.50;99.90
37518;DHT22;23366;52.498;13.446;2022-12-18T09:43:58;-3.40;99.90
37518;DHT22;23366;52.498;13.446;2022-12-18T09:46:35;-3.50;99.90
37518;DHT22;23366;52.498;13.446;2022-12-18T09:49:05;-3.40;99.90
37518;DHT22;23366;52.498;13.446;2022-12-18T09:51:37;-3.50;99.90
37518;DHT22;23366;52.498;13.446;2022-12-18T09:54:15;-3.60;99.90
37518;DHT22;23366;52.498;13.446;2022-12-18T09:56:42;-3.50;99.90
37518;DHT22;23366;52.498;13.446;2022-12-18T09:59:22;-3.40;99.90
37518;DHT22;23366;52.498;13.446;2022-12-18T10:01:48;-3.40;99.90
37518;DHT22;23366;52.498;13.446;2022-12-18T10:04:14;-3.40;99.90
37518;DHT22;23366;52.498;13.446;2022-12-18T10:09:20;-3.50;99.90
37518;DHT22;23366;52.498;13.446;2022-12-18T10:14:53;-3.40;99.90
37518;DHT22;23366;52.498;13.446;2022-12-18T10:17:38;-3.40;99.90
37518;DHT22;23366;52.498;13.446;2022-12-18T10:20:09;-3.40;99.90
37518;DHT22;23366;52.498;13.446;2022-12-18T10:22:57;-3.30;99.90
37518;DHT22;23366;52.498;13.446;2022-12-18T10:25:31;-3.20;99.90
37518;DHT22;23366;52.498;13.446;2022-12-18T10:28:07;-3.00;99.90
37518;DHT22;23366;52.498;13.446;2022-12-18T10:30:35;-3.00;99.90
37518;DHT22;23366;52.498;13.446;2022-12-18T10:33:03;-3.00;99.90
37518;DHT22;23366;52.498;13.446;2022-12-18T10:35:29;-3.00;99.90
37518;DHT22;23366;52.498;13.446;2022-12-18T10:40:51;-3.00;99.90
37518;DHT22;23366;52.498;13.446;2022-12-18T10:43:24;-2.90;99.90
37518;DHT22;23366;52.498;13.446;2022-12-18T10:46:03;-2.90;99.90
37518;DHT22;23366;52.498;13.446;2022-12-18T10:48:47;-2.80;99.90
37518;DHT22;23366;52.498;13.446;2022-12-18T10:51:21;-2.70;99.90
37518;DHT22;23366;52.498;13.446;2022-12-18T10:54:05;-2.60;99.90
37518;DHT22;23366;52.498;13.446;2022-12-18T10:56:35;-2.50;99.90
37518;DHT22;23366;52.498;13.446;2022-12-18T10:59:04;-2.60;99.90
37518;DHT22;23366;52.498;13.446;2022-12-18T11:02:00;-2.60;99.90
37518;DHT22;23366;52.498;13.446;2022-12-18T11:04:31;-2.60;99.90
37518;DHT22;23366;52.498;13.446;2022-12-18T11:07:16;-2.70;99.90
37518;DHT22;23366;52.498;13.446;2022-12-18T11:10:04;-2.70;99.90
37518;DHT22;23366;52.498;13.446;2022-12-18T11:12:30;-2.80;99.90
37518;DHT22;23366;52.498;13.446;2022-12-18T11:14:55;-2.80;99.90
37518;DHT22;23366;52.498;13.446;2022-12-18T11:17:35;-2.80;99.90
37518;DHT22;23366;52.498;13.446;2022-12-18T11:20:05;-2.80;99.90
37518;DHT22;23366;52.498;13.446;2022-12-18T11:22:36;-3.00;99.90
37518;DHT22;23366;52.498;13.446;2022-12-18T11:27:42;-3.00;99.90
37518;DHT22;23366;52.498;13.446;2022-12-18T11:32:59;-2.80;99.90
37518;DHT22;23366;52.498;13.446;2022-12-18T11:35:49;-2.80;99.90
37518;DHT22;23366;52.498;13.446;2022-12-18T11:38:28;-2.80;99.90
37518;DHT22;23366;52.498;13.446;2022-12-18T11:41:05;-2.80;99.90
37518;DHT22;23366;52.498;13.446;2022-12-18T11:43:53;-3.00;99.90
37518;DHT22;23366;52.498;13.446;2022-12-18T11:46:48;-2.90;99.90
37518;DHT22;23366;52.498;13.446;2022-12-18T11:49:33;-3.00;99.90
37518;DHT22;23366;52.498;13.446;2022-12-18T11:52:20;-2.90;99.90
37518;DHT22;23366;52.498;13.446;2022-12-18T11:54:46;-2.90;99.90
37518;DHT22;23366;52.498;13.446;2022-12-18T11:57:39;-2.80;99.90
37518;DHT22;23366;52.498;13.446;2022-12-18T12:00:15;-2.80;99.90
37518;DHT22;23366;52.498;13.446;2022-12-18T12:03:06;-2.80;99.90
37518;DHT22;23366;52.498;13.446;2022-12-18T12:11:01;-2.70;99.90
37518;DHT22;23366;52.498;13.446;2022-12-18T12:16:09;-2.60;99.90
37518;DHT22;23366;52.498;13.446;2022-12-18T12:26:52;-2.50;99.90
37518;DHT22;23366;52.498;13.446;2022-12-18T12:29:26;-2.50;99.90
37518;DHT22;23366;52.498;13.446;2022-12-18T12:32:07;-2.60;99.90
37518;DHT22;23366;52.498;13.446;2022-12-18T12:37:36;-2.60;99.90
37518;DHT22;23366;52.498;13.446;2022-12-18T12:40:04;-2.60;99.90
37518;DHT22;23366;52.498;13.446;2022-12-18T12:42:38;-2.50;99.90
37518;DHT22;23366;52.498;13.446;2022-12-18T12:45:33;-2.60;99.90
37518;DHT22;23366;52.498;13.446;2022-12-18T12:48:01;-2.50;99.90
37518;DHT22;23366;52.498;13.446;2022-12-18T12:50:30;-2.50;99.90
37518;DHT22;23366;52.498;13.446;2022-12-18T12:53:00;-2.50;99.90
37518;DHT22;23366;52.498;13.446;2022-12-18T12:55:28;-2.50;99.90
37518;DHT22;23366;52.498;13.446;2022-12-18T12:58:13;-2.50;99.90
37518;DHT22;23366;52.498;13.446;2022-12-18T13:00:49;-2.50;99.90
37518;DHT22;23366;52.498;13.446;2022-12-18T13:03:46;-2.50;99.90
37518;DHT22;23366;52.498;13.446;2022-12-18T13:06:33;-2.50;99.90
37518;DHT22;23366;52.498;13.446;2022-12-18T13:09:01;-2.60;99.90
37518;DHT22;23366;52.498;13.446;2022-12-18T13:11:41;-2.60;99.90
37518;DHT22;23366;52.498;13.446;2022-12-18T13:14:40;-2.70;99.90
37518;DHT22;23366;52.498;13.446;2022-12-18T13:19:51;-2.60;99.90
37518;DHT22;23366;52.498;13.446;2022-12-18T13:22:34;-2.70;99.90
37518;DHT22;23366;52.498;13.446;2022-12-18T13:25:00;-2.70;99.90
37518;DHT22;23366;52.498;13.446;2022-12-18T13:35:52;-2.70;99.90
37518;DHT22;23366;52.498;13.446;2022-12-18T13:38:25;-2.70;99.90
37518;DHT22;23366;52.498;13.446;2022-12-18T13:40:59;-2.80;99.90
37518;DHT22;23366;52.498;13.446;2022-12-18T13:43:35;-2.80;99.90
37518;DHT22;23366;52.498;13.446;2022-12-18T13:46:06;-2.80;99.90
37518;DHT22;23366;52.498;13.446;2022-12-18T13:48:56;-2.80;99.90
37518;DHT22;23366;52.498;13.446;2022-12-18T13:51:25;-2.80;99.90
37518;DHT22;23366;52.498;13.446;2022-12-18T13:54:02;-2.90;99.90
37518;DHT22;23366;52.498;13.446;2022-12-18T13:56:30;-2.90;99.90
37518;DHT22;23366;52.498;13.446;2022-12-18T13:59:20;-3.00;99.90
37518;DHT22;23366;52.498;13.446;2022-12-18T14:01:48;-3.00;99.90
37518;DHT22;23366;52.498;13.446;2022-12-18T14:04:24;-3.00;99.90
37518;DHT22;23366;52.498;13.446;2022-12-18T14:07:10;-2.90;99.90
37518;DHT22;23366;52.498;13.446;2022-12-18T14:09:42;-2.90;99.90
37518;DHT22;23366;52.498;13.446;2022-12-18T14:12:17;-2.90;99.90
37518;DHT22;23366;52.498;13.446;2022-12-18T14:15:03;-3.00;99.90
37518;DHT22;23366;52.498;13.446;2022-12-18T14:17:30;-2.90;99.90
37518;DHT22;23366;52.498;13.446;2022-12-18T14:19:56;-2.90;99.90
37518;DHT22;23366;52.498;13.446;2022-12-18T14:22:26;-3.00;99.90
37518;DHT22;23366;52.498;13.446;2022-12-18T14:25:14;-2.90;99.90
37518;DHT22;23366;52.498;13.446;2022-12-18T14:27:46;-2.80;99.90
37518;DHT22;23366;52.498;13.446;2022-12-18T14:35:35;-2.80;99.90
37518;DHT22;23366;52.498;13.446;2022-12-18T14:38:20;-2.90;99.90
37518;DHT22;23366;52.498;13.446;2022-12-18T14:41:02;-2.90;99.90
37518;DHT22;23366;52.498;13.446;2022-12-18T14:43:33;-2.90;99.90
37518;DHT22;23366;52.498;13.446;2022-12-18T14:46:00;-3.00;99.90
37518;DHT22;23366;52.498;13.446;2022-12-18T14:48:40;-3.00;99.90
37518;DHT22;23366;52.498;13.446;2022-12-18T14:51:19;-2.90;99.90
37518;DHT22;23366;52.498;13.446;2022-12-18T14:53:56;-3.00;99.90
37518;DHT22;23366;52.498;13.446;2022-12-18T14:56:25;-3.00;99.90
37518;DHT22;23366;52.498;13.446;2022-12-18T14:59:06;-3.10;99.90
37518;DHT22;23366;52.498;13.446;2022-12-18T15:01:44;-3.10;99.90
37518;DHT22;23366;52.498;13.446;2022-12-18T15:04:32;-3.20;99.90
37518;DHT22;23366;52.498;13.446;2022-12-18T15:09:33;-3.30;99.90
37518;DHT22;23366;52.498;13.446;2022-12-18T15:12:00;-3.30;99.90
37518;DHT22;23366;52.498;13.446;2022-12-18T15:14:33;-3.30;99.90
37518;DHT22;23366;52.498;13.446;2022-12-18T15:17:01;-3.20;99.90
37518;DHT22;23366;52.498;13.446;2022-12-18T15:19:39;-3.30;99.90
37518;DHT22;23366;52.498;13.446;2022-12-18T15:24:49;-3.40;99.90
37518;DHT22;23366;52.498;13.446;2022-12-18T15:27:24;-3.30;99.90
37518;DHT22;23366;52.498;13.446;2022-12-18T15:30:18;-3.30;99.90
37518;DHT22;23366;52.498;13.446;2022-12-18T15:32:44;-3.30;99.90
37518;DHT22;23366;52.498;13.446;2022-12-18T15:35:14;-3.20;99.90
37518;DHT22;23366;52.498;13.446;2022-12-18T15:37:40;-3.20;99.90
37518;DHT22;23366;52.498;13.446;2022-12-18T15:40:07;-3.20;99.90
37518;DHT22;23366;52.498;13.446;2022-12-18T15:42:33;-3.20;99.90
37518;DHT22;23366;52.498;13.446;2022-12-18T15:45:18;-3.10;99.90
37518;DHT22;23366;52.498;13.446;2022-12-18T15:47:43;-3.10;99.90
37518;DHT22;23366;52.498;13.446;2022-12-18T15:50:09;-3.00;99.90
37518;DHT22;23366;52.498;13.446;2022-12-18T15:52:43;-3.00;99.90
37518;DHT22;23366;52.498;13.446;2022-12-18T15:55:21;-3.00;99.90
37518;DHT22;23366;52.498;13.446;2022-12-18T15:58:07;-3.00;99.90
37518;DHT22;23366;52.498;13.446;2022-12-18T16:00:34;-3.10;99.90
37518;DHT22;23366;52.498;13.446;2022-12-18T16:03:00;-3.10;99.90
37518;DHT22;23366;52.498;13.446;2022-12-18T16:05:27;-3.20;99.90
37518;DHT22;23366;52.498;13.446;2022-12-18T16:07:53;-3.30;99.90
37518;DHT22;23366;52.498;13.446;2022-12-18T16:10:19;-3.20;99.90
37518;DHT22;23366;52.498;13.446;2022-12-18T16:12:45;-3.30;99.90
37518;DHT22;23366;52.498;13.446;2022-12-18T16:15:12;-3.20;99.90
37518;DHT22;23366;52.498;13.446;2022-12-18T16:17:39;-3.30;99.90
37518;DHT22;23366;52.498;13.446;2022-12-18T16:20:13;-3.30;99.90
37518;DHT22;23366;52.498;13.446;2022-12-18T16:22:41;-3.30;99.90
37518;DHT22;23366;52.498;13.446;2022-12-18T16:25:22;-3.20;99.90
37518;DHT22;23366;52.498;13.446;2022-12-18T16:27:49;-3.20;99.90
37518;DHT22;23366;52.498;13.446;2022-12-18T16:30:20;-3.20;99.90
37518;DHT22;23366;52.498;13.446;2022-12-18T16:32:46;-3.30;99.90
37518;DHT22;23366;52.498;13.446;2022-12-18T16:35:13;-3.20;99.90
37518;DHT22;23366;52.498;13.446;2022-12-18T16:37:39;-3.30;99.90
37518;DHT22;23366;52.498;13.446;2022-12-18T16:40:10;-3.30;99.90
37518;DHT22;23366;52.498;13.446;2022-12-18T16:42:37;-3.30;99.90
37518;DHT22;23366;52.498;13.446;2022-12-18T16:45:04;-3.20;99.90
37518;DHT22;23366;52.498;13.446;2022-12-18T16:47:30;-3.20;99.90
37518;DHT22;23366;52.498;13.446;2022-12-18T16:49:55;-3.30;99.90
37518;DHT22;23366;52.498;13.446;2022-12-18T16:52:21;-3.30;99.90
37518;DHT22;23366;52.498;13.446;2022-12-18T16:54:46;-3.30;99.90
37518;DHT22;23366;52.498;13.446;2022-12-18T16:57:14;-3.30;99.90